sensor_id;sensor_type;location;lat;lon;timestamp;temperature;humidity
48994;DHT22;34804;49.214;12.276;2023-01-16T00:02:24;1.70;86.50
48994;DHT22;34804;49.214;12.276;2023-01-16T00:04:51;1.70;86.50
48994;DHT22;34804;49.214;12.276;2023-01-16T00:07:18;1.70;86.40
48994;DHT22;34804;49.214;12.276;2023-01-16T00:09:44;1.60;86.40
48994;DHT22;34804;49.214;12.276;2023-01-16T00:12:11;1.60;86.50
48994;DHT22;34804;49.214;12.276;2023-01-16T00:14:38;1.50;86.60
48994;DHT22;34804;49.214;12.276;2023-01-16T00:17:05;1.50;86.80
48994;DHT22;34804;49.214;12.276;2023-01-16T00:19:34;1.60;86.80
48994;DHT22;34804;49.214;12.276;2023-01-16T00:22:00;1.50;86.80
48994;DHT22;34804;49.214;12.276;2023-01-16T00:24:27;1.50;86.80
48994;DHT22;34804;49.214;12.276;2023-01-16T00:26:54;1.50;86.70
48994;DHT22;34804;49.214;12.276;2023-01-16T00:29:21;1.50;86.80
48994;DHT22;34804;49.214;12.276;2023-01-16T00:31:47;1.50;86.80
48994;DHT22;34804;49.214;12.276;2023-01-16T00:34:14;1.60;86.60
48994;DHT22;34804;49.214;12.276;2023-01-16T00:36:41;1.60;86.40
48994;DHT22;34804;49.214;12.276;2023-01-16T00:39:09;1.50;86.30
48994;DHT22;34804;49.214;12.276;2023-01-16T00:41:35;1.60;86.00
48994;DHT22;34804;49.214;12.276;2023-01-16T00:44:02;1.50;85.90
48994;DHT22;34804;49.214;12.276;2023-01-16T00:46:29;1.50;86.00
48994;DHT22;34804;49.214;12.276;2023-01-16T00:48:56;1.50;85.90
48994;DHT22;34804;49.214;12.276;2023-01-16T00:51:23;1.50;86.10
48994;DHT22;34804;49.214;12.276;2023-01-16T00:53:50;1.50;85.80
48994;DHT22;34804;49.214;12.276;2023-01-16T00:56:17;1.50;85.70
48994;DHT22;34804;49.214;12.276;2023-01-16T00:58:43;1.50;85.50
48994;DHT22;34804;49.214;12.276;2023-01-16T01:01:10;1.50;85.40
48994;DHT22;34804;49.214;12.276;2023-01-16T01:03:40;1.50;85.50
48994;DHT22;34804;49.214;12.276;2023-01-16T01:06:08;1.50;85.30
48994;DHT22;34804;49.214;12.276;2023-01-16T01:08:37;1.60;85.10
48994;DHT22;34804;49.214;12.276;2023-01-16T01:11:12;1.70;84.70
48994;DHT22;34804;49.214;12.276;2023-01-16T01:13:41;1.60;84.80
48994;DHT22;34804;49.214;12.276;2023-01-16T01:16:10;1.60;84.50
48994;DHT22;34804;49.214;12.276;2023-01-16T01:18:37;1.70;84.70
48994;DHT22;34804;49.214;12.276;2023-01-16T01:21:04;1.60;84.50
48994;DHT22;34804;49.214;12.276;2023-01-16T01:23:32;1.60;85.10
48994;DHT22;34804;49.214;12.276;2023-01-16T01:26:04;1.60;85.20
48994;DHT22;34804;49.214;12.276;2023-01-16T01:28:31;1.50;85.30
48994;DHT22;34804;49.214;12.276;2023-01-16T01:31:02;1.60;85.30
48994;DHT22;34804;49.214;12.276;2023-01-16T01:33:29;1.60;85.50
48994;DHT22;34804;49.214;12.276;2023-01-16T01:35:55;1.60;85.60
48994;DHT22;34804;49.214;12.276;2023-01-16T01:38:22;1.60;85.60
48994;DHT22;34804;49.214;12.276;2023-01-16T01:40:49;1.60;85.60
48994;DHT22;34804;49.214;12.276;2023-01-16T01:43:16;1.60;85.30
48994;DHT22;34804;49.214;12.276;2023-01-16T01:45:48;1.60;85.20
48994;DHT22;34804;49.214;12.276;2023-01-16T01:48:21;1.70;84.90
48994;DHT22;34804;49.214;12.276;2023-01-16T01:50:59;1.70;84.40
48994;DHT22;34804;49.214;12.276;2023-01-16T01:53:47;1.80;84.60
48994;DHT22;34804;49.214;12.276;2023-01-16T01:56:15;1.80;84.30
48994;DHT22;34804;49.214;12.276;2023-01-16T01:58:45;1.80;84.00
48994;DHT22;34804;49.214;12.276;2023-01-16T02:01:13;1.80;83.80
48994;DHT22;34804;49.214;12.276;2023-01-16T02:03:48;1.80;84.00
48994;DHT22;34804;49.214;12.276;2023-01-16T02:06:21;1.80;83.70
48994;DHT22;34804;49.214;12.276;2023-01-16T02:08:52;1.80;83.70
48994;DHT22;34804;49.214;12.276;2023-01-16T02:11:25;1.80;83.90
48994;DHT22;34804;49.214;12.276;2023-01-16T02:14:00;1.80;84.10
48994;DHT22;34804;49.214;12.276;2023-01-16T02:16:29;1.90;83.60
48994;DHT22;34804;49.214;12.276;2023-01-16T02:19:24;1.90;83.50
48994;DHT22;34804;49.214;12.276;2023-01-16T02:21:59;1.90;83.90
48994;DHT22;34804;49.214;12.276;2023-01-16T02:24:51;1.80;83.90
48994;DHT22;34804;49.214;12.276;2023-01-16T02:39:02;1.90;83.60
48994;DHT22;34804;49.214;12.276;2023-01-16T02:42:07;1.90;83.40
48994;DHT22;34804;49.214;12.276;2023-01-16T02:44:40;1.80;84.40
48994;DHT22;34804;49.214;12.276;2023-01-16T02:50:21;1.90;83.50
48994;DHT22;34804;49.214;12.276;2023-01-16T02:53:15;1.80;83.90
48994;DHT22;34804;49.214;12.276;2023-01-16T02:55:47;1.80;84.20
48994;DHT22;34804;49.214;12.276;2023-01-16T02:58:18;1.80;84.20
48994;DHT22;34804;49.214;12.276;2023-01-16T03:00:57;1.80;83.90
48994;DHT22;34804;49.214;12.276;2023-01-16T03:03:43;1.80;83.80
48994;DHT22;34804;49.214;12.276;2023-01-16T03:06:30;1.80;83.80
48994;DHT22;34804;49.214;12.276;2023-01-16T03:09:20;1.80;83.70
48994;DHT22;34804;49.214;12.276;2023-01-16T03:14:38;1.90;83.50
48994;DHT22;34804;49.214;12.276;2023-01-16T03:17:44;1.90;83.70
48994;DHT22;34804;49.214;12.276;2023-01-16T03:20:23;1.80;84.00
48994;DHT22;34804;49.214;12.276;2023-01-16T03:26:02;1.80;84.50
48994;DHT22;34804;49.214;12.276;2023-01-16T03:37:02;1.70;84.20
48994;DHT22;34804;49.214;12.276;2023-01-16T03:39:35;1.70;84.20
48994;DHT22;34804;49.214;12.276;2023-01-16T03:42:09;1.80;84.20
48994;DHT22;34804;49.214;12.276;2023-01-16T03:44:40;1.70;84.00
48994;DHT22;34804;49.214;12.276;2023-01-16T03:47:18;1.70;84.00
48994;DHT22;34804;49.214;12.276;2023-01-16T03:49:52;1.60;84.00
48994;DHT22;34804;49.214;12.276;2023-01-16T03:52:23;1.70;83.90
48994;DHT22;34804;49.214;12.276;2023-01-16T03:55:14;1.60;84.00
48994;DHT22;34804;49.214;12.276;2023-01-16T03:57:52;1.50;84.10
48994;DHT22;34804;49.214;12.276;2023-01-16T04:00:21;1.40;84.30
48994;DHT22;34804;49.214;12.276;2023-01-16T04:03:10;1.40;84.40
48994;DHT22;34804;49.214;12.276;2023-01-16T04:05:48;1.30;84.90
48994;DHT22;34804;49.214;12.276;2023-01-16T04:08:19;1.30;85.00
48994;DHT22;34804;49.214;12.276;2023-01-16T04:10:49;1.20;85.20
48994;DHT22;34804;49.214;12.276;2023-01-16T04:13:25;1.10;85.10
48994;DHT22;34804;49.214;12.276;2023-01-16T04:15:55;1.10;85.20
48994;DHT22;34804;49.214;12.276;2023-01-16T04:18:28;1.00;85.50
48994;DHT22;34804;49.214;12.276;2023-01-16T04:20:56;0.90;85.40
48994;DHT22;34804;49.214;12.276;2023-01-16T04:23:22;0.80;86.10
48994;DHT22;34804;49.214;12.276;2023-01-16T04:25:49;0.70;86.00
48994;DHT22;34804;49.214;12.276;2023-01-16T04:28:17;0.70;86.20
48994;DHT22;34804;49.214;12.276;2023-01-16T04:30:43;0.70;86.50
48994;DHT22;34804;49.214;12.276;2023-01-16T04:33:10;0.70;86.50
48994;DHT22;34804;49.214;12.276;2023-01-16T04:35:37;0.60;86.30
48994;DHT22;34804;49.214;12.276;2023-01-16T04:38:04;0.50;86.60
48994;DHT22;34804;49.214;12.276;2023-01-16T04:40:30;0.40;86.90
48994;DHT22;34804;49.214;12.276;2023-01-16T04:42:57;0.40;87.10
48994;DHT22;34804;49.214;12.276;2023-01-16T04:45:24;0.50;86.90
48994;DHT22;34804;49.214;12.276;2023-01-16T04:47:51;0.50;86.70
48994;DHT22;34804;49.214;12.276;2023-01-16T04:50:19;0.50;86.80
48994;DHT22;34804;49.214;12.276;2023-01-16T04:52:46;0.40;86.90
48994;DHT22;34804;49.214;12.276;2023-01-16T04:55:13;0.30;86.90
48994;DHT22;34804;49.214;12.276;2023-01-16T04:57:40;0.30;87.10
48994;DHT22;34804;49.214;12.276;2023-01-16T05:00:09;0.20;87.00
48994;DHT22;34804;49.214;12.276;2023-01-16T05:02:36;0.10;87.10
48994;DHT22;34804;49.214;12.276;2023-01-16T05:05:04;0.20;87.20
48994;DHT22;34804;49.214;12.276;2023-01-16T05:07:31;0.20;87.20
48994;DHT22;34804;49.214;12.276;2023-01-16T05:09:57;0.10;87.30
48994;DHT22;34804;49.214;12.276;2023-01-16T05:12:24;0.10;87.40
48994;DHT22;34804;49.214;12.276;2023-01-16T05:14:51;0.00;87.50
48994;DHT22;34804;49.214;12.276;2023-01-16T05:17:18;0.00;87.50
48994;DHT22;34804;49.214;12.276;2023-01-16T05:19:49;0.00;87.60
48994;DHT22;34804;49.214;12.276;2023-01-16T05:22:16;-3276.70;87.70
48994;DHT22;34804;49.214;12.276;2023-01-16T05:24:43;-3276.70;87.80
48994;DHT22;34804;49.214;12.276;2023-01-16T05:27:09;-3276.60;88.10
48994;DHT22;34804;49.214;12.276;2023-01-16T05:29:36;-3276.60;88.20
48994;DHT22;34804;49.214;12.276;2023-01-16T05:32:03;-3276.60;88.20
48994;DHT22;34804;49.214;12.276;2023-01-16T05:34:30;-3276.50;88.20
48994;DHT22;34804;49.214;12.276;2023-01-16T05:36:57;-3276.50;88.30
48994;DHT22;34804;49.214;12.276;2023-01-16T05:39:23;-3276.40;88.40
48994;DHT22;34804;49.214;12.276;2023-01-16T05:41:50;-3276.50;88.50
48994;DHT22;34804;49.214;12.276;2023-01-16T05:44:17;-3276.40;88.00
48994;DHT22;34804;49.214;12.276;2023-01-16T05:46:45;-3276.30;88.50
48994;DHT22;34804;49.214;12.276;2023-01-16T05:49:13;-3276.30;88.30
48994;DHT22;34804;49.214;12.276;2023-01-16T05:51:39;-3276.20;88.00
48994;DHT22;34804;49.214;12.276;2023-01-16T05:54:10;-3276.10;88.60
48994;DHT22;34804;49.214;12.276;2023-01-16T05:56:37;-3276.20;88.90
48994;DHT22;34804;49.214;12.276;2023-01-16T05:59:04;-3276.20;88.10
48994;DHT22;34804;49.214;12.276;2023-01-16T06:01:30;-3276.10;88.80
48994;DHT22;34804;49.214;12.276;2023-01-16T06:03:57;-3276.20;88.80
48994;DHT22;34804;49.214;12.276;2023-01-16T06:06:24;-3276.20;88.70
48994;DHT22;34804;49.214;12.276;2023-01-16T06:08:51;-3276.20;88.80
48994;DHT22;34804;49.214;12.276;2023-01-16T06:11:18;-3276.10;88.70
48994;DHT22;34804;49.214;12.276;2023-01-16T06:13:45;-3276.00;88.70
48994;DHT22;34804;49.214;12.276;2023-01-16T06:16:13;-3276.00;89.10
48994;DHT22;34804;49.214;12.276;2023-01-16T06:18:40;-3276.10;89.60
48994;DHT22;34804;49.214;12.276;2023-01-16T06:21:07;-3276.10;88.80
48994;DHT22;34804;49.214;12.276;2023-01-16T06:23:33;-3276.00;88.70
48994;DHT22;34804;49.214;12.276;2023-01-16T06:26:00;-3276.00;88.80
48994;DHT22;34804;49.214;12.276;2023-01-16T06:28:29;-3276.00;89.00
48994;DHT22;34804;49.214;12.276;2023-01-16T06:30:56;-3276.00;89.20
48994;DHT22;34804;49.214;12.276;2023-01-16T06:33:22;-3276.00;89.20
48994;DHT22;34804;49.214;12.276;2023-01-16T06:35:49;-3276.00;89.20
48994;DHT22;34804;49.214;12.276;2023-01-16T06:38:16;-3276.10;89.10
48994;DHT22;34804;49.214;12.276;2023-01-16T06:40:44;-3276.10;89.10
48994;DHT22;34804;49.214;12.276;2023-01-16T06:43:11;-3276.10;89.10
48994;DHT22;34804;49.214;12.276;2023-01-16T06:45:38;-3276.10;89.10
48994;DHT22;34804;49.214;12.276;2023-01-16T06:48:05;-3276.10;89.00
48994;DHT22;34804;49.214;12.276;2023-01-16T06:50:31;-3276.10;88.90
48994;DHT22;34804;49.214;12.276;2023-01-16T06:52:58;-3276.10;89.00
48994;DHT22;34804;49.214;12.276;2023-01-16T06:55:26;-3276.10;89.00
48994;DHT22;34804;49.214;12.276;2023-01-16T06:57:52;-3276.10;89.10
48994;DHT22;34804;49.214;12.276;2023-01-16T07:00:20;-3276.10;89.10
48994;DHT22;34804;49.214;12.276;2023-01-16T07:02:55;-3276.10;89.10
48994;DHT22;34804;49.214;12.276;2023-01-16T07:05:24;-3276.20;89.30
48994;DHT22;34804;49.214;12.276;2023-01-16T07:07:51;-3276.30;89.20
48994;DHT22;34804;49.214;12.276;2023-01-16T07:10:18;-3276.30;88.90
48994;DHT22;34804;49.214;12.276;2023-01-16T07:12:50;-3276.40;88.70
48994;DHT22;34804;49.214;12.276;2023-01-16T07:15:17;-3276.40;88.60
48994;DHT22;34804;49.214;12.276;2023-01-16T07:18:03;-3276.50;88.60
48994;DHT22;34804;49.214;12.276;2023-01-16T07:20:54;-3276.60;88.30
48994;DHT22;34804;49.214;12.276;2023-01-16T07:23:44;0.00;87.80
48994;DHT22;34804;49.214;12.276;2023-01-16T07:26:12;0.00;87.50
48994;DHT22;34804;49.214;12.276;2023-01-16T07:28:41;0.00;87.20
48994;DHT22;34804;49.214;12.276;2023-01-16T07:31:08;0.00;87.00
48994;DHT22;34804;49.214;12.276;2023-01-16T07:33:35;0.00;86.60
48994;DHT22;34804;49.214;12.276;2023-01-16T07:36:02;0.00;86.50
48994;DHT22;34804;49.214;12.276;2023-01-16T07:38:29;0.00;86.30
48994;DHT22;34804;49.214;12.276;2023-01-16T07:40:55;0.00;86.30
48994;DHT22;34804;49.214;12.276;2023-01-16T07:43:22;0.00;86.20
48994;DHT22;34804;49.214;12.276;2023-01-16T07:45:49;0.00;86.00
48994;DHT22;34804;49.214;12.276;2023-01-16T07:48:20;0.00;86.30
48994;DHT22;34804;49.214;12.276;2023-01-16T07:50:54;0.00;86.40
48994;DHT22;34804;49.214;12.276;2023-01-16T07:53:23;0.00;86.50
48994;DHT22;34804;49.214;12.276;2023-01-16T07:55:52;0.10;86.80
48994;DHT22;34804;49.214;12.276;2023-01-16T07:58:20;0.20;86.60
48994;DHT22;34804;49.214;12.276;2023-01-16T08:00:48;0.30;86.40
48994;DHT22;34804;49.214;12.276;2023-01-16T08:03:15;0.30;86.20
48994;DHT22;34804;49.214;12.276;2023-01-16T08:05:42;0.40;86.00
48994;DHT22;34804;49.214;12.276;2023-01-16T08:08:11;0.40;85.70
48994;DHT22;34804;49.214;12.276;2023-01-16T08:10:38;0.50;85.70
48994;DHT22;34804;49.214;12.276;2023-01-16T08:13:05;0.60;85.60
48994;DHT22;34804;49.214;12.276;2023-01-16T08:15:32;0.70;85.20
48994;DHT22;34804;49.214;12.276;2023-01-16T08:17:59;0.80;84.80
48994;DHT22;34804;49.214;12.276;2023-01-16T08:20:25;0.80;84.50
48994;DHT22;34804;49.214;12.276;2023-01-16T08:22:53;0.90;84.50
48994;DHT22;34804;49.214;12.276;2023-01-16T08:25:21;1.10;84.50
48994;DHT22;34804;49.214;12.276;2023-01-16T08:27:49;1.10;84.30
48994;DHT22;34804;49.214;12.276;2023-01-16T08:30:16;1.20;84.00
48994;DHT22;34804;49.214;12.276;2023-01-16T08:32:46;1.30;83.60
48994;DHT22;34804;49.214;12.276;2023-01-16T08:35:12;1.30;83.40
48994;DHT22;34804;49.214;12.276;2023-01-16T08:37:48;1.40;83.30
48994;DHT22;34804;49.214;12.276;2023-01-16T08:40:16;1.40;82.90
48994;DHT22;34804;49.214;12.276;2023-01-16T08:42:43;1.60;82.50
48994;DHT22;34804;49.214;12.276;2023-01-16T08:45:28;1.60;82.40
48994;DHT22;34804;49.214;12.276;2023-01-16T08:48:22;1.70;82.00
48994;DHT22;34804;49.214;12.276;2023-01-16T08:51:18;1.80;81.80
48994;DHT22;34804;49.214;12.276;2023-01-16T08:53:50;1.90;81.50
48994;DHT22;34804;49.214;12.276;2023-01-16T08:56:17;1.90;81.10
48994;DHT22;34804;49.214;12.276;2023-01-16T08:58:44;2.00;80.70
48994;DHT22;34804;49.214;12.276;2023-01-16T09:01:11;2.10;80.90
48994;DHT22;34804;49.214;12.276;2023-01-16T09:03:38;2.10;80.60
48994;DHT22;34804;49.214;12.276;2023-01-16T09:06:04;2.20;80.00
48994;DHT22;34804;49.214;12.276;2023-01-16T09:08:31;2.30;80.00
48994;DHT22;34804;49.214;12.276;2023-01-16T09:10:58;2.40;79.80
48994;DHT22;34804;49.214;12.276;2023-01-16T09:13:44;2.60;79.10
48994;DHT22;34804;49.214;12.276;2023-01-16T09:16:23;2.70;78.20
48994;DHT22;34804;49.214;12.276;2023-01-16T09:18:51;2.80;77.70
48994;DHT22;34804;49.214;12.276;2023-01-16T09:21:19;2.90;77.30
48994;DHT22;34804;49.214;12.276;2023-01-16T09:23:46;3.20;74.30
48994;DHT22;34804;49.214;12.276;2023-01-16T09:26:13;3.30;75.40
48994;DHT22;34804;49.214;12.276;2023-01-16T09:28:40;3.50;74.20
48994;DHT22;34804;49.214;12.276;2023-01-16T09:31:07;3.60;73.50
48994;DHT22;34804;49.214;12.276;2023-01-16T09:33:34;3.70;74.00
48994;DHT22;34804;49.214;12.276;2023-01-16T09:36:04;3.70;73.50
48994;DHT22;34804;49.214;12.276;2023-01-16T09:38:31;3.80;72.70
48994;DHT22;34804;49.214;12.276;2023-01-16T09:40:58;3.90;73.80
48994;DHT22;34804;49.214;12.276;2023-01-16T09:43:46;3.90;73.10
48994;DHT22;34804;49.214;12.276;2023-01-16T09:46:22;4.10;73.20
48994;DHT22;34804;49.214;12.276;2023-01-16T09:48:50;4.10;71.60
48994;DHT22;34804;49.214;12.276;2023-01-16T09:51:23;4.20;72.00
48994;DHT22;34804;49.214;12.276;2023-01-16T09:54:06;4.40;70.60
48994;DHT22;34804;49.214;12.276;2023-01-16T09:57:03;4.40;69.70
48994;DHT22;34804;49.214;12.276;2023-01-16T09:59:54;4.50;69.70
48994;DHT22;34804;49.214;12.276;2023-01-16T10:02:28;4.60;68.00
48994;DHT22;34804;49.214;12.276;2023-01-16T10:04:58;4.70;69.00
48994;DHT22;34804;49.214;12.276;2023-01-16T10:10:42;4.80;67.60
48994;DHT22;34804;49.214;12.276;2023-01-16T10:16:21;5.00;67.50
48994;DHT22;34804;49.214;12.276;2023-01-16T10:19:16;5.10;66.80
48994;DHT22;34804;49.214;12.276;2023-01-16T10:24:35;5.30;66.00
48994;DHT22;34804;49.214;12.276;2023-01-16T10:27:27;5.30;66.20
48994;DHT22;34804;49.214;12.276;2023-01-16T10:33:13;5.50;64.10
48994;DHT22;34804;49.214;12.276;2023-01-16T10:35:44;5.60;65.00
48994;DHT22;34804;49.214;12.276;2023-01-16T10:38:26;5.70;64.40
48994;DHT22;34804;49.214;12.276;2023-01-16T10:41:01;5.80;64.40
48994;DHT22;34804;49.214;12.276;2023-01-16T10:43:48;5.90;64.70
48994;DHT22;34804;49.214;12.276;2023-01-16T10:46:36;6.10;64.30
48994;DHT22;34804;49.214;12.276;2023-01-16T10:49:21;6.20;64.40
48994;DHT22;34804;49.214;12.276;2023-01-16T10:51:56;6.30;63.30
48994;DHT22;34804;49.214;12.276;2023-01-16T10:54:24;6.40;62.50
48994;DHT22;34804;49.214;12.276;2023-01-16T10:56:51;6.50;62.80
48994;DHT22;34804;49.214;12.276;2023-01-16T10:59:19;6.50;61.80
48994;DHT22;34804;49.214;12.276;2023-01-16T11:01:48;6.70;59.60
48994;DHT22;34804;49.214;12.276;2023-01-16T11:04:18;6.80;59.70
48994;DHT22;34804;49.214;12.276;2023-01-16T11:06:45;6.90;59.70
48994;DHT22;34804;49.214;12.276;2023-01-16T11:09:19;7.10;59.80
48994;DHT22;34804;49.214;12.276;2023-01-16T11:11:50;7.20;58.20
48994;DHT22;34804;49.214;12.276;2023-01-16T11:14:39;7.40;59.40
48994;DHT22;34804;49.214;12.276;2023-01-16T11:17:30;7.60;57.80
48994;DHT22;34804;49.214;12.276;2023-01-16T11:20:34;7.90;56.20
48994;DHT22;34804;49.214;12.276;2023-01-16T11:25:36;8.60;55.30
48994;DHT22;34804;49.214;12.276;2023-01-16T11:28:07;8.90;51.40
48994;DHT22;34804;49.214;12.276;2023-01-16T11:30:39;9.20;52.00
48994;DHT22;34804;49.214;12.276;2023-01-16T11:33:17;9.50;51.20
48994;DHT22;34804;49.214;12.276;2023-01-16T11:35:51;9.90;49.90
48994;DHT22;34804;49.214;12.276;2023-01-16T11:38:20;9.60;48.80
48994;DHT22;34804;49.214;12.276;2023-01-16T11:40:48;9.70;49.00
48994;DHT22;34804;49.214;12.276;2023-01-16T11:43:22;9.40;49.10
48994;DHT22;34804;49.214;12.276;2023-01-16T11:48:57;9.30;49.10
48994;DHT22;34804;49.214;12.276;2023-01-16T11:51:29;9.30;48.30
48994;DHT22;34804;49.214;12.276;2023-01-16T11:53:57;9.30;48.90
48994;DHT22;34804;49.214;12.276;2023-01-16T11:56:43;9.40;47.40
48994;DHT22;34804;49.214;12.276;2023-01-16T12:02:20;8.80;47.90
48994;DHT22;34804;49.214;12.276;2023-01-16T12:05:03;8.80;48.80
48994;DHT22;34804;49.214;12.276;2023-01-16T12:11:06;8.70;46.40
48994;DHT22;34804;49.214;12.276;2023-01-16T12:21:59;8.10;49.00
48994;DHT22;34804;49.214;12.276;2023-01-16T12:30:00;8.30;48.80
48994;DHT22;34804;49.214;12.276;2023-01-16T12:47:06;7.80;51.60
48994;DHT22;34804;49.214;12.276;2023-01-16T12:52:24;7.70;53.70
48994;DHT22;34804;49.214;12.276;2023-01-16T12:55:12;7.80;54.00
48994;DHT22;34804;49.214;12.276;2023-01-16T12:58:02;7.70;52.80
48994;DHT22;34804;49.214;12.276;2023-01-16T13:00:36;7.80;53.90
48994;DHT22;34804;49.214;12.276;2023-01-16T13:03:21;7.80;54.20
48994;DHT22;34804;49.214;12.276;2023-01-16T13:05:49;7.70;54.10
48994;DHT22;34804;49.214;12.276;2023-01-16T13:08:22;7.60;55.40
48994;DHT22;34804;49.214;12.276;2023-01-16T13:10:54;7.60;55.10
48994;DHT22;34804;49.214;12.276;2023-01-16T13:13:55;7.60;54.80
48994;DHT22;34804;49.214;12.276;2023-01-16T13:16:29;8.40;53.30
48994;DHT22;34804;49.214;12.276;2023-01-16T13:19:03;8.80;52.50
48994;DHT22;34804;49.214;12.276;2023-01-16T13:21:38;8.80;52.30
48994;DHT22;34804;49.214;12.276;2023-01-16T13:24:19;8.60;52.50
48994;DHT22;34804;49.214;12.276;2023-01-16T13:26:54;8.50;54.10
48994;DHT22;34804;49.214;12.276;2023-01-16T13:29:31;8.30;53.60
48994;DHT22;34804;49.214;12.276;2023-01-16T13:32:49;8.00;54.70
48994;DHT22;34804;49.214;12.276;2023-01-16T13:34:59;7.70;55.40
48994;DHT22;34804;49.214;12.276;2023-01-16T13:40:34;7.30;58.20
48994;DHT22;34804;49.214;12.276;2023-01-16T13:43:16;7.10;58.60
48994;DHT22;34804;49.214;12.276;2023-01-16T13:46:03;7.10;59.30
48994;DHT22;34804;49.214;12.276;2023-01-16T13:48:34;7.00;60.10
48994;DHT22;34804;49.214;12.276;2023-01-16T13:51:11;6.90;58.80
48994;DHT22;34804;49.214;12.276;2023-01-16T13:53:39;6.90;57.70
48994;DHT22;34804;49.214;12.276;2023-01-16T13:56:20;6.90;60.20
48994;DHT22;34804;49.214;12.276;2023-01-16T13:58:59;6.80;57.50
48994;DHT22;34804;49.214;12.276;2023-01-16T14:06:49;6.70;59.70
48994;DHT22;34804;49.214;12.276;2023-01-16T14:09:21;6.70;60.40
48994;DHT22;34804;49.214;12.276;2023-01-16T14:12:01;6.60;60.90
48994;DHT22;34804;49.214;12.276;2023-01-16T14:17:28;6.40;60.90
48994;DHT22;34804;49.214;12.276;2023-01-16T14:20:02;6.30;60.30
48994;DHT22;34804;49.214;12.276;2023-01-16T14:22:42;6.20;61.50
48994;DHT22;34804;49.214;12.276;2023-01-16T14:25:37;6.10;63.30
48994;DHT22;34804;49.214;12.276;2023-01-16T14:28:04;6.10;64.40
48994;DHT22;34804;49.214;12.276;2023-01-16T14:30:32;6.10;63.30
48994;DHT22;34804;49.214;12.276;2023-01-16T14:33:03;6.00;64.50
48994;DHT22;34804;49.214;12.276;2023-01-16T14:35:47;6.00;63.30
48994;DHT22;34804;49.214;12.276;2023-01-16T14:38:20;6.00;64.00
48994;DHT22;34804;49.214;12.276;2023-01-16T14:40:55;5.90;65.70
48994;DHT22;34804;49.214;12.276;2023-01-16T14:44:02;6.00;66.60
48994;DHT22;34804;49.214;12.276;2023-01-16T14:46:53;6.10;65.50
48994;DHT22;34804;49.214;12.276;2023-01-16T14:56:00;6.10;63.30
48994;DHT22;34804;49.214;12.276;2023-01-16T14:58:44;5.90;65.60
48994;DHT22;34804;49.214;12.276;2023-01-16T15:01:28;5.80;67.10
48994;DHT22;34804;49.214;12.276;2023-01-16T15:04:16;5.80;66.40
48994;DHT22;34804;49.214;12.276;2023-01-16T15:06:50;5.80;67.10
48994;DHT22;34804;49.214;12.276;2023-01-16T15:09:19;5.80;66.70
48994;DHT22;34804;49.214;12.276;2023-01-16T15:12:01;5.80;66.40
48994;DHT22;34804;49.214;12.276;2023-01-16T15:14:28;5.60;66.80
48994;DHT22;34804;49.214;12.276;2023-01-16T15:17:00;5.60;67.40
48994;DHT22;34804;49.214;12.276;2023-01-16T15:22:53;5.40;68.60
48994;DHT22;34804;49.214;12.276;2023-01-16T15:28:36;5.30;69.80
48994;DHT22;34804;49.214;12.276;2023-01-16T15:31:12;5.20;69.70
48994;DHT22;34804;49.214;12.276;2023-01-16T15:33:40;5.30;70.60
48994;DHT22;34804;49.214;12.276;2023-01-16T15:41:38;5.10;72.10
48994;DHT22;34804;49.214;12.276;2023-01-16T15:44:28;5.10;71.90
48994;DHT22;34804;49.214;12.276;2023-01-16T15:47:29;5.00;72.10
48994;DHT22;34804;49.214;12.276;2023-01-16T15:52:32;5.00;71.90
48994;DHT22;34804;49.214;12.276;2023-01-16T15:55:11;4.90;72.30
48994;DHT22;34804;49.214;12.276;2023-01-16T15:57:47;4.90;72.40
48994;DHT22;34804;49.214;12.276;2023-01-16T16:00:24;4.80;72.60
48994;DHT22;34804;49.214;12.276;2023-01-16T16:02:57;4.80;72.60
48994;DHT22;34804;49.214;12.276;2023-01-16T16:05:25;4.80;73.40
48994;DHT22;34804;49.214;12.276;2023-01-16T16:07:53;4.70;73.60
48994;DHT22;34804;49.214;12.276;2023-01-16T16:10:20;4.60;73.70
48994;DHT22;34804;49.214;12.276;2023-01-16T16:13:07;4.70;74.10
48994;DHT22;34804;49.214;12.276;2023-01-16T16:15:34;4.60;75.10
48994;DHT22;34804;49.214;12.276;2023-01-16T16:18:20;4.60;73.90
48994;DHT22;34804;49.214;12.276;2023-01-16T16:20:51;4.70;74.70
48994;DHT22;34804;49.214;12.276;2023-01-16T16:23:21;4.60;75.00
48994;DHT22;34804;49.214;12.276;2023-01-16T16:28:25;4.50;74.50
48994;DHT22;34804;49.214;12.276;2023-01-16T16:33:24;4.40;75.10
48994;DHT22;34804;49.214;12.276;2023-01-16T16:35:54;4.40;75.70
48994;DHT22;34804;49.214;12.276;2023-01-16T16:38:30;4.40;75.80
48994;DHT22;34804;49.214;12.276;2023-01-16T16:44:13;4.40;76.30
48994;DHT22;34804;49.214;12.276;2023-01-16T16:46:50;4.40;76.00
48994;DHT22;34804;49.214;12.276;2023-01-16T16:49:28;4.40;76.30
48994;DHT22;34804;49.214;12.276;2023-01-16T16:54:56;4.30;76.60
48994;DHT22;34804;49.214;12.276;2023-01-16T16:57:24;4.30;77.10
48994;DHT22;34804;49.214;12.276;2023-01-16T16:59:54;4.20;77.30
48994;DHT22;34804;49.214;12.276;2023-01-16T17:02:21;4.20;77.00
48994;DHT22;34804;49.214;12.276;2023-01-16T17:04:49;4.20;77.10
48994;DHT22;34804;49.214;12.276;2023-01-16T17:07:16;4.20;77.10
48994;DHT22;34804;49.214;12.276;2023-01-16T17:09:42;4.10;77.20
48994;DHT22;34804;49.214;12.276;2023-01-16T17:12:15;4.20;77.50
48994;DHT22;34804;49.214;12.276;2023-01-16T17:14:43;4.20;77.60
48994;DHT22;34804;49.214;12.276;2023-01-16T17:17:15;4.20;77.60
48994;DHT22;34804;49.214;12.276;2023-01-16T17:19:43;4.10;78.00
48994;DHT22;34804;49.214;12.276;2023-01-16T17:22:10;4.20;77.80
48994;DHT22;34804;49.214;12.276;2023-01-16T17:24:38;4.30;77.80
48994;DHT22;34804;49.214;12.276;2023-01-16T17:27:05;4.30;77.80
48994;DHT22;34804;49.214;12.276;2023-01-16T17:29:36;4.30;77.70
48994;DHT22;34804;49.214;12.276;2023-01-16T17:32:28;4.40;77.80
48994;DHT22;34804;49.214;12.276;2023-01-16T17:34:57;4.30;78.30
48994;DHT22;34804;49.214;12.276;2023-01-16T17:37:25;4.40;77.70
48994;DHT22;34804;49.214;12.276;2023-01-16T17:39:52;4.40;77.70
48994;DHT22;34804;49.214;12.276;2023-01-16T17:42:19;4.40;77.10
48994;DHT22;34804;49.214;12.276;2023-01-16T17:44:46;4.40;77.50
48994;DHT22;34804;49.214;12.276;2023-01-16T17:47:31;4.40;77.30
48994;DHT22;34804;49.214;12.276;2023-01-16T17:49:58;4.30;77.50
48994;DHT22;34804;49.214;12.276;2023-01-16T17:52:44;4.30;77.70
48994;DHT22;34804;49.214;12.276;2023-01-16T17:55:11;4.20;78.50
48994;DHT22;34804;49.214;12.276;2023-01-16T17:57:57;4.10;78.30
48994;DHT22;34804;49.214;12.276;2023-01-16T18:00:24;4.10;78.50
48994;DHT22;34804;49.214;12.276;2023-01-16T18:02:51;4.10;78.40
48994;DHT22;34804;49.214;12.276;2023-01-16T18:05:18;4.00;78.60